Portada
METAR-TAF:

METAR-TAF

Aeroports :

Ibagué, Colòmbia

latitud: 04-26N, longitud: 075-09W, altitud: 928 m

Observació

L'informe es va fer fa 10 hores i 34 minuts, a les 23:00 UTC
Vent 4 kt del Oest
Temperatura 28°C
Humitat 58%
Pressió 1017 hPa
Visibilitat 10 km o més
Escasses núvols a una alçada de 3000 ft
Cel ennuvolat a una alçada de 10000 ft

METAR: SKIB 022300Z 27004KT 9999 FEW030 BKN100 28/19 A3002

Hora: 04:34 (09:34 UTC)


TAF: manca

Observacions i pronòstics meteorològics de més de 4000 aeroports (METAR i TAF).

Les estacions disponibles són els punts grocs i vermells al mapa.

Posi el ratolí al punt desitjat per veure el nom de l'estació.

Feu clic per veure les observacions i els pronòstics meteorològics.

Per canviar el mapa: feu clic els botons verds amb una creu de color negre per apropar; al botó verd amb un guió per allunyar la imatge; o en les fletxes verdes per a mapes adjacents.


METAR-TAF: